createdAt,value
2018-11-06T00:00:59.389Z,1010.13
2018-11-06T00:01:59.758Z,1010.13
2018-11-06T00:02:59.522Z,1010.18
2018-11-06T00:03:59.364Z,1010.19
2018-11-06T00:04:59.357Z,1010.18
2018-11-06T00:05:59.427Z,1010.17
2018-11-06T00:06:59.421Z,1010.21
2018-11-06T00:07:59.581Z,1010.18
2018-11-06T00:09:00.360Z,1010.18
2018-11-06T00:09:59.370Z,1010.14
2018-11-06T00:10:59.436Z,1010.15
2018-11-06T00:11:59.363Z,1010.07
2018-11-06T00:12:59.566Z,1010.08
2018-11-06T00:13:59.413Z,1010.03
2018-11-06T00:14:59.321Z,1010.06
2018-11-06T00:15:59.454Z,1009.98
2018-11-06T00:16:59.422Z,1009.99
2018-11-06T00:17:59.452Z,1009.96
2018-11-06T00:18:59.630Z,1009.98
2018-11-06T00:20:01.543Z,1009.98
2018-11-06T00:20:59.396Z,1009.98
2018-11-06T00:21:59.311Z,1010.02
2018-11-06T00:23:00.429Z,1010.02
2018-11-06T00:23:59.458Z,1010.05
2018-11-06T00:24:59.495Z,1010.01
2018-11-06T00:25:59.470Z,1010.03
2018-11-06T00:26:59.344Z,1010.06
2018-11-06T00:27:59.336Z,1009.99
2018-11-06T00:28:59.468Z,1010.08
2018-11-06T00:29:59.510Z,1010.1
2018-11-06T00:30:59.455Z,1010.08
2018-11-06T00:31:59.400Z,1010.05
2018-11-06T00:32:59.466Z,1010.05
2018-11-06T00:34:00.706Z,1010.07
2018-11-06T00:34:59.422Z,1010.06
2018-11-06T00:35:59.392Z,1010.09
2018-11-06T00:36:59.499Z,1010.11
2018-11-06T00:37:59.502Z,1010.14
2018-11-06T00:39:00.530Z,1010.2
2018-11-06T00:39:59.347Z,1010.21
2018-11-06T00:40:59.708Z,1010.19
2018-11-06T00:41:59.542Z,1010.21
2018-11-06T00:42:59.375Z,1010.23
2018-11-06T00:43:59.364Z,1010.21
2018-11-06T00:44:59.533Z,1010.17
2018-11-06T00:45:59.404Z,1010.22
2018-11-06T00:46:59.385Z,1010.2
2018-11-06T00:47:59.527Z,1010.18
2018-11-06T00:48:59.458Z,1010.18
2018-11-06T00:49:59.542Z,1010.16
2018-11-06T00:50:59.500Z,1010.18
2018-11-06T00:51:59.559Z,1010.18
2018-11-06T00:52:59.411Z,1010.12
2018-11-06T00:54:00.277Z,1010.17
2018-11-06T00:54:59.410Z,1010.13
2018-11-06T00:55:59.341Z,1010.14
2018-11-06T00:56:59.484Z,1010.1
2018-11-06T00:57:59.489Z,1010.12
2018-11-06T00:58:59.371Z,1010.05
2018-11-06T00:59:59.371Z,1010.04
2018-11-06T01:00:59.276Z,1010.04
2018-11-06T01:01:59.503Z,1010
2018-11-06T01:02:59.446Z,1010.01
2018-11-06T01:03:59.483Z,1010.01
2018-11-06T01:04:59.406Z,1010.04
2018-11-06T01:05:59.326Z,1010.05
2018-11-06T01:06:59.434Z,1010
2018-11-06T01:07:59.420Z,1010.08
2018-11-06T01:08:59.281Z,1010.02
2018-11-06T01:10:00.053Z,1010.04
2018-11-06T01:10:59.322Z,1010.02
2018-11-06T01:11:59.276Z,1010
2018-11-06T01:12:59.337Z,1009.98
2018-11-06T01:13:59.452Z,1009.94
2018-11-06T01:14:59.436Z,1009.96
2018-11-06T01:15:59.421Z,1010.01
2018-11-06T01:16:59.337Z,1009.98
2018-11-06T01:17:59.329Z,1009.95
2018-11-06T01:18:59.273Z,1009.97
2018-11-06T01:19:59.329Z,1009.95
2018-11-06T01:20:59.448Z,1009.95
2018-11-06T01:21:59.578Z,1009.97
2018-11-06T01:22:59.318Z,1009.94
2018-11-06T01:23:59.368Z,1009.92
2018-11-06T01:24:59.435Z,1009.88
2018-11-06T01:25:59.348Z,1009.88
2018-11-06T01:26:59.734Z,1009.88
2018-11-06T01:27:59.700Z,1009.81
2018-11-06T01:28:59.334Z,1009.9
2018-11-06T01:29:59.381Z,1009.82
2018-11-06T01:30:59.256Z,1009.87
2018-11-06T01:31:59.441Z,1009.87
2018-11-06T01:32:59.254Z,1009.83
2018-11-06T01:33:59.795Z,1009.77
2018-11-06T01:34:59.335Z,1009.76
2018-11-06T01:35:59.263Z,1009.78
2018-11-06T01:36:59.182Z,1009.8
2018-11-06T01:37:59.278Z,1009.82
2018-11-06T01:38:59.327Z,1009.82
2018-11-06T01:39:59.941Z,1009.82
2018-11-06T01:40:59.197Z,1009.81
2018-11-06T01:41:59.298Z,1009.8
2018-11-06T01:42:59.210Z,1009.79
2018-11-06T01:43:59.242Z,1009.86
2018-11-06T01:44:59.305Z,1009.84
2018-11-06T01:45:59.249Z,1009.88
2018-11-06T01:46:59.217Z,1009.87
2018-11-06T01:47:59.238Z,1009.87
2018-11-06T01:48:59.192Z,1009.92
2018-11-06T01:49:59.263Z,1009.96
2018-11-06T01:50:59.288Z,1009.94
2018-11-06T01:51:59.233Z,1009.96
2018-11-06T01:52:59.274Z,1010
2018-11-06T01:53:59.348Z,1010.02
2018-11-06T01:54:59.260Z,1010.03
2018-11-06T01:55:59.279Z,1010.04
2018-11-06T01:56:59.247Z,1010.02
2018-11-06T01:57:59.213Z,1010.04
2018-11-06T01:58:59.560Z,1010.04
2018-11-06T01:59:59.333Z,1010.05
2018-11-06T02:00:59.382Z,1009.99
2018-11-06T02:01:59.294Z,1010
2018-11-06T02:02:59.593Z,1009.97
2018-11-06T02:03:59.264Z,1010.01
2018-11-06T02:04:59.257Z,1009.99
2018-11-06T02:05:59.329Z,1010.08
2018-11-06T02:06:59.235Z,1010.12
2018-11-06T02:07:59.212Z,1010.13
2018-11-06T02:08:59.220Z,1010.16
2018-11-06T02:09:59.205Z,1010.25
2018-11-06T02:10:59.251Z,1010.18
2018-11-06T02:11:59.220Z,1010.27
2018-11-06T02:12:59.416Z,1010.32
2018-11-06T02:13:59.192Z,1010.33
2018-11-06T02:14:59.187Z,1010.33
2018-11-06T02:15:59.243Z,1010.31
2018-11-06T02:16:59.498Z,1010.32
2018-11-06T02:17:59.246Z,1010.28
2018-11-06T02:18:59.344Z,1010.27
2018-11-06T02:19:59.308Z,1010.24
2018-11-06T02:20:59.376Z,1010.21
2018-11-06T02:21:59.276Z,1010.18
2018-11-06T02:22:59.232Z,1010.17
2018-11-06T02:23:59.276Z,1010.11
2018-11-06T02:24:59.302Z,1010.11
2018-11-06T02:25:59.176Z,1010.09
2018-11-06T02:26:59.258Z,1010.1
2018-11-06T02:27:59.192Z,1010.1
2018-11-06T02:28:59.140Z,1010.1
2018-11-06T02:29:59.177Z,1010.08
2018-11-06T02:31:00.133Z,1010.02
2018-11-06T02:31:59.327Z,1010
2018-11-06T02:32:59.177Z,1010
2018-11-06T02:33:59.124Z,1009.97
2018-11-06T02:34:59.440Z,1009.94
2018-11-06T02:35:59.229Z,1009.95
2018-11-06T02:36:59.186Z,1009.89
2018-11-06T02:37:59.156Z,1009.88
2018-11-06T02:38:59.195Z,1009.89
2018-11-06T02:39:59.349Z,1009.94
2018-11-06T02:40:59.578Z,1009.87
2018-11-06T02:41:59.178Z,1009.93
2018-11-06T02:42:59.286Z,1009.91
2018-11-06T02:43:59.229Z,1009.96
2018-11-06T02:44:59.194Z,1009.97
2018-11-06T02:45:59.136Z,1009.97
2018-11-06T02:46:59.318Z,1010.04
2018-11-06T02:47:59.204Z,1010.1
2018-11-06T02:48:59.250Z,1010.08
2018-11-06T02:49:59.262Z,1010.07
2018-11-06T02:50:59.243Z,1010.06
2018-11-06T02:51:59.312Z,1010.03
2018-11-06T02:52:59.310Z,1009.99
2018-11-06T02:53:59.583Z,1009.98
2018-11-06T02:54:59.315Z,1009.96
2018-11-06T02:55:59.477Z,1009.96
2018-11-06T02:56:59.156Z,1009.95
2018-11-06T02:57:59.186Z,1009.98
2018-11-06T02:58:59.234Z,1009.97
2018-11-06T02:59:59.310Z,1009.97
2018-11-06T03:00:59.601Z,1009.91
2018-11-06T03:01:59.217Z,1009.98
2018-11-06T03:02:59.302Z,1009.97
2018-11-06T03:03:59.127Z,1009.99
2018-11-06T03:04:59.617Z,1009.98
2018-11-06T03:05:59.163Z,1009.99
2018-11-06T03:06:59.317Z,1010.04
2018-11-06T03:07:59.143Z,1010.07
2018-11-06T03:08:59.224Z,1010.07
2018-11-06T03:09:59.165Z,1010.14
2018-11-06T03:10:59.386Z,1010.11
2018-11-06T03:11:59.146Z,1010.16
2018-11-06T03:12:59.245Z,1010.16
2018-11-06T03:13:59.080Z,1010.14
2018-11-06T03:14:59.141Z,1010.13
2018-11-06T03:15:59.215Z,1010.1
2018-11-06T03:16:59.390Z,1010.06
2018-11-06T03:17:59.144Z,1010.03
2018-11-06T03:18:59.103Z,1010
2018-11-06T03:19:59.120Z,1009.99
2018-11-06T03:20:59.080Z,1010
2018-11-06T03:21:59.106Z,1009.96
2018-11-06T03:22:59.090Z,1009.99
2018-11-06T03:23:59.536Z,1009.96
2018-11-06T03:24:59.092Z,1009.94
2018-11-06T03:25:59.196Z,1009.98
2018-11-06T03:26:59.414Z,1009.95
2018-11-06T03:27:59.096Z,1009.92
2018-11-06T03:28:59.107Z,1009.91
2018-11-06T03:29:59.136Z,1009.96
2018-11-06T03:30:59.105Z,1010.01
2018-11-06T03:31:59.115Z,1009.98
2018-11-06T03:32:59.391Z,1009.95
2018-11-06T03:33:59.429Z,1009.99
2018-11-06T03:34:59.177Z,1010.06
2018-11-06T03:35:59.477Z,1010.06
2018-11-06T03:36:59.116Z,1010.07
2018-11-06T03:37:59.115Z,1010.06
2018-11-06T03:38:59.169Z,1010.11
2018-11-06T03:39:59.166Z,1010.13
2018-11-06T03:40:59.098Z,1010.18
2018-11-06T03:41:59.072Z,1010.18
2018-11-06T03:42:59.134Z,1010.2
2018-11-06T03:43:59.208Z,1010.21
2018-11-06T03:44:59.144Z,1010.23
2018-11-06T03:45:59.571Z,1010.26
2018-11-06T03:46:59.255Z,1010.2
2018-11-06T03:47:59.042Z,1010.22
2018-11-06T03:48:59.514Z,1010.27
2018-11-06T03:49:59.172Z,1010.28
2018-11-06T03:50:59.239Z,1010.29
2018-11-06T03:51:59.432Z,1010.32
2018-11-06T03:52:59.303Z,1010.33
2018-11-06T03:53:59.142Z,1010.3
2018-11-06T03:54:59.061Z,1010.32
2018-11-06T03:55:59.245Z,1010.26
2018-11-06T03:56:59.075Z,1010.28
2018-11-06T03:57:59.853Z,1010.28
2018-11-06T03:58:59.106Z,1010.24
2018-11-06T04:00:00.203Z,1010.28
2018-11-06T04:00:59.156Z,1010.25
2018-11-06T04:01:59.019Z,1010.27
2018-11-06T04:02:59.896Z,1010.32
2018-11-06T04:03:59.191Z,1010.33
2018-11-06T04:04:59.086Z,1010.31
2018-11-06T04:05:59.079Z,1010.26
2018-11-06T04:06:59.343Z,1010.23
2018-11-06T04:07:59.212Z,1010.2
2018-11-06T04:08:59.049Z,1010.24
2018-11-06T04:09:59.029Z,1010.22
2018-11-06T04:10:59.142Z,1010.19
2018-11-06T04:11:59.184Z,1010.22
2018-11-06T04:12:59.133Z,1010.17
2018-11-06T04:13:59.038Z,1010.18
2018-11-06T04:14:59.177Z,1010.15
2018-11-06T04:15:59.098Z,1010.11
2018-11-06T04:16:59.389Z,1010.12
2018-11-06T04:17:59.158Z,1010.2
2018-11-06T04:18:59.103Z,1010.14
2018-11-06T04:19:59.180Z,1010.17
2018-11-06T04:20:58.996Z,1010.13
2018-11-06T04:21:59.108Z,1010.12
2018-11-06T04:22:59.024Z,1010.12
2018-11-06T04:23:59.110Z,1010.13
2018-11-06T04:24:59.234Z,1010.07
2018-11-06T04:25:59.138Z,1010.12
2018-11-06T04:26:58.992Z,1010.03
2018-11-06T04:27:59.115Z,1010.04
2018-11-06T04:28:59.040Z,1010
2018-11-06T04:29:59.145Z,1010.02
2018-11-06T04:30:59.064Z,1010.04
2018-11-06T04:31:58.931Z,1010
2018-11-06T04:32:59.154Z,1010.02
2018-11-06T04:33:59.194Z,1009.97
2018-11-06T04:34:59.183Z,1009.96
2018-11-06T04:35:59.017Z,1009.97
2018-11-06T04:36:59.017Z,1009.98
2018-11-06T04:37:59.074Z,1009.98
2018-11-06T04:38:59.002Z,1009.98
2018-11-06T04:39:59.182Z,1009.96
2018-11-06T04:40:59.119Z,1009.91
2018-11-06T04:41:59.025Z,1009.91
2018-11-06T04:42:59.176Z,1009.92
2018-11-06T04:43:59.045Z,1009.86
2018-11-06T04:44:59.090Z,1009.83
2018-11-06T04:45:59.110Z,1009.78
2018-11-06T04:46:58.963Z,1009.76
2018-11-06T04:47:58.982Z,1009.76
2018-11-06T04:48:59.151Z,1009.69
2018-11-06T04:49:58.923Z,1009.66
2018-11-06T04:50:59.328Z,1009.64
2018-11-06T04:51:58.920Z,1009.63
2018-11-06T04:52:58.967Z,1009.57
2018-11-06T04:53:59.156Z,1009.56
2018-11-06T04:54:58.958Z,1009.6
2018-11-06T04:55:58.982Z,1009.58
2018-11-06T04:56:58.951Z,1009.61
2018-11-06T04:57:58.937Z,1009.58
2018-11-06T04:58:58.941Z,1009.6
2018-11-06T04:59:59.006Z,1009.65
2018-11-06T05:00:59.028Z,1009.64
2018-11-06T05:01:58.993Z,1009.61
2018-11-06T05:02:58.932Z,1009.63
2018-11-06T05:03:58.979Z,1009.57
2018-11-06T05:04:59.105Z,1009.56
2018-11-06T05:05:58.932Z,1009.54
2018-11-06T05:06:59.620Z,1009.56
2018-11-06T05:07:58.911Z,1009.48
2018-11-06T05:08:59.314Z,1009.5
2018-11-06T05:09:59.056Z,1009.46
2018-11-06T05:10:58.982Z,1009.49
2018-11-06T05:11:59.019Z,1009.42
2018-11-06T05:12:58.910Z,1009.44
2018-11-06T05:13:58.956Z,1009.42
2018-11-06T05:14:58.890Z,1009.43
2018-11-06T05:15:59.133Z,1009.5
2018-11-06T05:16:59.112Z,1009.5
2018-11-06T05:17:59.062Z,1009.48
2018-11-06T05:18:59.005Z,1009.5
2018-11-06T05:19:59.080Z,1009.51
2018-11-06T05:20:58.908Z,1009.56
2018-11-06T05:21:59.203Z,1009.48
2018-11-06T05:22:58.945Z,1009.44
2018-11-06T05:23:59.103Z,1009.4
2018-11-06T05:24:58.930Z,1009.39
2018-11-06T05:25:59.068Z,1009.37
2018-11-06T05:26:59.141Z,1009.36
2018-11-06T05:27:59.407Z,1009.32
2018-11-06T05:28:59.049Z,1009.33
2018-11-06T05:29:59.036Z,1009.39
2018-11-06T05:30:58.950Z,1009.36
2018-11-06T05:31:59.066Z,1009.38
2018-11-06T05:32:59.283Z,1009.38
2018-11-06T05:33:58.896Z,1009.41
2018-11-06T05:34:59.207Z,1009.42
2018-11-06T05:35:58.969Z,1009.47
2018-11-06T05:36:58.991Z,1009.46
2018-11-06T05:37:58.992Z,1009.48
2018-11-06T05:38:59.163Z,1009.55
2018-11-06T05:39:58.968Z,1009.51
2018-11-06T05:40:58.965Z,1009.57
2018-11-06T05:41:58.973Z,1009.56
2018-11-06T05:42:58.928Z,1009.6
2018-11-06T05:43:59.124Z,1009.61
2018-11-06T05:44:58.963Z,1009.6
2018-11-06T05:45:58.950Z,1009.59
2018-11-06T05:46:59.056Z,1009.62
2018-11-06T05:47:58.944Z,1009.64
2018-11-06T05:48:58.825Z,1009.62
2018-11-06T05:49:59.052Z,1009.64
2018-11-06T05:50:58.932Z,1009.63
2018-11-06T05:51:58.890Z,1009.66
2018-11-06T05:52:59.036Z,1009.75
2018-11-06T05:53:59.061Z,1009.69
2018-11-06T05:54:58.859Z,1009.73
2018-11-06T05:55:59.032Z,1009.77
2018-11-06T05:56:58.832Z,1009.8
2018-11-06T05:57:59.161Z,1009.79
2018-11-06T05:58:58.951Z,1009.84
2018-11-06T05:59:58.840Z,1009.85
2018-11-06T06:00:59.110Z,1009.85
2018-11-06T06:01:58.919Z,1009.76
2018-11-06T06:02:58.891Z,1009.82
2018-11-06T06:03:58.867Z,1009.84
2018-11-06T06:04:58.982Z,1009.81
2018-11-06T06:05:59.105Z,1009.84
2018-11-06T06:06:58.818Z,1009.79
2018-11-06T06:07:58.813Z,1009.82
2018-11-06T06:08:59.141Z,1009.8
2018-11-06T06:09:58.997Z,1009.83
2018-11-06T06:10:59.131Z,1009.82
2018-11-06T06:11:58.838Z,1009.83
2018-11-06T06:12:58.890Z,1009.85
2018-11-06T06:13:59.056Z,1009.91
2018-11-06T06:14:58.800Z,1009.86
2018-11-06T06:15:58.811Z,1009.92
2018-11-06T06:16:59.035Z,1009.87
2018-11-06T06:17:58.958Z,1009.86
2018-11-06T06:18:58.979Z,1009.88
2018-11-06T06:19:59.000Z,1009.82
2018-11-06T06:20:58.914Z,1009.87
2018-11-06T06:21:58.970Z,1009.87
2018-11-06T06:22:59.036Z,1009.85
2018-11-06T06:23:59.545Z,1009.84
2018-11-06T06:24:58.794Z,1009.84
2018-11-06T06:25:58.811Z,1009.85
2018-11-06T06:26:58.791Z,1009.81
2018-11-06T06:27:58.890Z,1009.79
2018-11-06T06:28:58.845Z,1009.78
2018-11-06T06:29:58.966Z,1009.82
2018-11-06T06:30:58.939Z,1009.85
2018-11-06T06:31:58.815Z,1009.81
2018-11-06T06:32:58.769Z,1009.79
2018-11-06T06:33:59.128Z,1009.83
2018-11-06T06:34:58.931Z,1009.84
2018-11-06T06:35:58.947Z,1009.83
2018-11-06T06:36:58.788Z,1009.79
2018-11-06T06:37:58.886Z,1009.84
2018-11-06T06:38:59.029Z,1009.76
2018-11-06T06:39:58.907Z,1009.76
2018-11-06T06:40:59.049Z,1009.71
2018-11-06T06:41:58.762Z,1009.65
2018-11-06T06:42:58.762Z,1009.65
2018-11-06T06:43:58.835Z,1009.6
2018-11-06T06:44:58.773Z,1009.64
2018-11-06T06:45:59.177Z,1009.6
2018-11-06T06:46:58.815Z,1009.55
2018-11-06T06:47:58.985Z,1009.51
2018-11-06T06:48:58.754Z,1009.5
2018-11-06T06:49:58.930Z,1009.48
2018-11-06T06:50:58.822Z,1009.45
2018-11-06T06:51:58.992Z,1009.54
2018-11-06T06:52:58.761Z,1009.51
2018-11-06T06:53:58.930Z,1009.5
2018-11-06T06:54:58.891Z,1009.48
2018-11-06T06:55:58.903Z,1009.47
2018-11-06T06:56:58.915Z,1009.51
2018-11-06T06:57:59.053Z,1009.5
2018-11-06T06:58:58.783Z,1009.48
2018-11-06T06:59:58.781Z,1009.53
2018-11-06T07:00:59.151Z,1009.58
2018-11-06T07:01:59.086Z,1009.56
2018-11-06T07:02:58.753Z,1009.62
2018-11-06T07:03:58.800Z,1009.64
2018-11-06T07:04:58.767Z,1009.67
2018-11-06T07:05:58.746Z,1009.67
2018-11-06T07:06:58.785Z,1009.7
2018-11-06T07:07:58.743Z,1009.74
2018-11-06T07:08:58.725Z,1009.72
2018-11-06T07:09:58.908Z,1009.76
2018-11-06T07:10:58.765Z,1009.72
2018-11-06T07:11:58.720Z,1009.75
2018-11-06T07:12:59.305Z,1009.76
2018-11-06T07:13:58.810Z,1009.81
2018-11-06T07:14:58.732Z,1009.88
2018-11-06T07:15:58.908Z,1009.82
2018-11-06T07:16:58.739Z,1009.8
2018-11-06T07:17:58.763Z,1009.82
2018-11-06T07:18:58.886Z,1009.85
2018-11-06T07:19:58.912Z,1009.83
2018-11-06T07:20:58.712Z,1009.85
2018-11-06T07:21:58.748Z,1009.81
2018-11-06T07:22:58.784Z,1009.83
2018-11-06T07:23:58.686Z,1009.87
2018-11-06T07:24:58.768Z,1009.87
2018-11-06T07:25:58.700Z,1009.91
2018-11-06T07:26:58.806Z,1009.96
2018-11-06T07:27:58.794Z,1009.97
2018-11-06T07:28:58.963Z,1009.96
2018-11-06T07:29:59.006Z,1010.02
2018-11-06T07:30:58.859Z,1010.05
2018-11-06T07:31:58.674Z,1010.08
2018-11-06T07:32:58.739Z,1010.07
2018-11-06T07:33:58.709Z,1010.12
2018-11-06T07:34:59.395Z,1010.11
2018-11-06T07:35:59.287Z,1010.13
2018-11-06T07:36:58.720Z,1010.17
2018-11-06T07:37:59.061Z,1010.18
2018-11-06T07:38:58.733Z,1010.21
2018-11-06T07:39:58.876Z,1010.26
2018-11-06T07:40:59.013Z,1010.24
2018-11-06T07:41:58.746Z,1010.23
2018-11-06T07:42:58.745Z,1010.22
2018-11-06T07:43:58.719Z,1010.24
2018-11-06T07:44:58.967Z,1010.29
2018-11-06T07:45:58.796Z,1010.22
2018-11-06T07:46:58.672Z,1010.23
2018-11-06T07:47:58.783Z,1010.25
2018-11-06T07:48:59.166Z,1010.28
2018-11-06T07:49:59.262Z,1010.33
2018-11-06T07:50:58.661Z,1010.25
2018-11-06T07:51:58.633Z,1010.34
2018-11-06T07:52:59.023Z,1010.26
2018-11-06T07:53:59.027Z,1010.22
2018-11-06T07:54:59.131Z,1010.23
2018-11-06T07:55:59.057Z,1010.15
2018-11-06T07:56:58.786Z,1010.14
2018-11-06T07:57:59.065Z,1010.12
2018-11-06T07:58:58.644Z,1010.11
2018-11-06T07:59:59.067Z,1010.08
2018-11-06T08:00:58.800Z,1010.03
2018-11-06T08:01:58.694Z,1010.11
2018-11-06T08:02:58.673Z,1010.1
2018-11-06T08:03:58.723Z,1010.16
2018-11-06T08:04:58.636Z,1010.16
2018-11-06T08:05:58.776Z,1010.22
2018-11-06T08:06:58.715Z,1010.29
2018-11-06T08:07:59.212Z,1010.26
2018-11-06T08:08:58.892Z,1010.28
2018-11-06T08:09:58.733Z,1010.3
2018-11-06T08:10:58.636Z,1010.28
2018-11-06T08:11:58.638Z,1010.26
2018-11-06T08:12:58.637Z,1010.3
2018-11-06T08:13:58.652Z,1010.3
2018-11-06T08:14:58.961Z,1010.29
2018-11-06T08:15:58.657Z,1010.3
2018-11-06T08:16:58.646Z,1010.28
2018-11-06T08:17:58.864Z,1010.28
2018-11-06T08:18:58.661Z,1010.23
2018-11-06T08:19:58.658Z,1010.25
2018-11-06T08:20:58.659Z,1010.23
2018-11-06T08:21:58.646Z,1010.23
2018-11-06T08:22:58.655Z,1010.2
2018-11-06T08:23:58.788Z,1010.17
2018-11-06T08:24:58.602Z,1010.19
2018-11-06T08:25:58.936Z,1010.19
2018-11-06T08:26:58.681Z,1010.21
2018-11-06T08:27:58.738Z,1010.16
2018-11-06T08:28:58.858Z,1010.17
2018-11-06T08:29:58.980Z,1010.13
2018-11-06T08:30:59.436Z,1010.1
2018-11-06T08:32:00.427Z,1010.14
2018-11-06T08:32:58.686Z,1010.15
2018-11-06T08:33:58.759Z,1010.15
2018-11-06T08:34:58.656Z,1010.18
2018-11-06T08:35:58.601Z,1010.19
2018-11-06T08:36:59.204Z,1010.2
2018-11-06T08:37:58.650Z,1010.2
2018-11-06T08:38:58.576Z,1010.26
2018-11-06T08:39:58.656Z,1010.19
2018-11-06T08:40:58.818Z,1010.19
2018-11-06T08:41:58.634Z,1010.19
2018-11-06T08:42:58.594Z,1010.19
2018-11-06T08:43:58.611Z,1010.18
2018-11-06T08:44:58.761Z,1010.16
2018-11-06T08:45:58.807Z,1010.16
2018-11-06T08:46:58.579Z,1010.17
2018-11-06T08:47:59.068Z,1010.18
2018-11-06T08:48:58.598Z,1010.19
2018-11-06T08:49:58.634Z,1010.18
2018-11-06T08:50:58.664Z,1010.12
2018-11-06T08:51:58.604Z,1010.13
2018-11-06T08:52:58.757Z,1010.15
2018-11-06T08:53:58.630Z,1010.16
2018-11-06T08:54:58.722Z,1010.18
2018-11-06T08:55:58.641Z,1010.22
2018-11-06T08:56:58.662Z,1010.25
2018-11-06T08:57:58.611Z,1010.21
2018-11-06T08:58:58.609Z,1010.17
2018-11-06T08:59:58.764Z,1010.17
2018-11-06T09:00:58.623Z,1010.19
2018-11-06T09:01:58.582Z,1010.13
2018-11-06T09:02:58.623Z,1010.14
2018-11-06T09:03:58.794Z,1010.13
2018-11-06T09:04:58.694Z,1010.09
2018-11-06T09:05:58.667Z,1010.07
2018-11-06T09:06:58.815Z,1010
2018-11-06T09:07:58.658Z,1009.96
2018-11-06T09:08:58.843Z,1009.88
2018-11-06T09:09:58.840Z,1009.96
2018-11-06T09:10:58.946Z,1009.92
2018-11-06T09:11:58.945Z,1009.94
2018-11-06T09:12:58.557Z,1009.94
2018-11-06T09:13:58.751Z,1009.99
2018-11-06T09:14:58.547Z,1009.99
2018-11-06T09:15:58.632Z,1009.97
2018-11-06T09:16:58.710Z,1009.96
2018-11-06T09:17:58.704Z,1009.96
2018-11-06T09:18:58.580Z,1010.02
2018-11-06T09:19:58.538Z,1009.97
2018-11-06T09:20:59.002Z,1009.96
2018-11-06T09:21:58.619Z,1009.95
2018-11-06T09:22:58.835Z,1009.95
2018-11-06T09:23:58.533Z,1009.98
2018-11-06T09:24:58.567Z,1010
2018-11-06T09:25:58.532Z,1010.04
2018-11-06T09:26:58.636Z,1009.99
2018-11-06T09:27:58.788Z,1010
2018-11-06T09:28:58.613Z,1009.98
2018-11-06T09:29:58.620Z,1009.96
2018-11-06T09:30:59.052Z,1009.9
2018-11-06T09:31:58.920Z,1009.96
2018-11-06T09:32:58.802Z,1009.96
2018-11-06T09:33:58.646Z,1009.94
2018-11-06T09:34:58.852Z,1009.92
2018-11-06T09:35:58.659Z,1009.92
2018-11-06T09:36:58.549Z,1009.9
2018-11-06T09:37:58.502Z,1009.9
2018-11-06T09:38:58.606Z,1009.87
2018-11-06T09:39:58.533Z,1009.86
2018-11-06T09:40:58.523Z,1009.81
2018-11-06T09:41:58.515Z,1009.82
2018-11-06T09:42:58.752Z,1009.79
2018-11-06T09:43:58.515Z,1009.8
2018-11-06T09:44:58.667Z,1009.76
2018-11-06T09:45:58.776Z,1009.79
2018-11-06T09:46:58.502Z,1009.75
2018-11-06T09:47:58.471Z,1009.72
2018-11-06T09:48:58.488Z,1009.69
2018-11-06T09:49:58.508Z,1009.68
2018-11-06T09:50:58.494Z,1009.69
2018-11-06T09:51:58.679Z,1009.71
2018-11-06T09:52:58.494Z,1009.65
2018-11-06T09:53:58.520Z,1009.66
2018-11-06T09:54:58.502Z,1009.62
2018-11-06T09:55:58.485Z,1009.64
2018-11-06T09:56:58.857Z,1009.65
2018-11-06T09:57:58.551Z,1009.61
2018-11-06T09:58:58.487Z,1009.63
2018-11-06T09:59:58.532Z,1009.6
2018-11-06T10:00:59.323Z,1009.62
2018-11-06T10:01:58.540Z,1009.62
2018-11-06T10:02:58.520Z,1009.56
2018-11-06T10:03:58.785Z,1009.59
2018-11-06T10:04:58.532Z,1009.55
2018-11-06T10:05:58.851Z,1009.57
2018-11-06T10:06:59.385Z,1009.47
2018-11-06T10:07:58.667Z,1009.46
2018-11-06T10:08:58.540Z,1009.48
2018-11-06T10:09:58.462Z,1009.47
2018-11-06T10:10:58.505Z,1009.41
2018-11-06T10:11:58.660Z,1009.42
2018-11-06T10:12:58.594Z,1009.41
2018-11-06T10:13:58.513Z,1009.45
2018-11-06T10:14:58.648Z,1009.38
2018-11-06T10:15:58.440Z,1009.39
2018-11-06T10:16:58.672Z,1009.39
2018-11-06T10:17:58.492Z,1009.37
2018-11-06T10:18:58.515Z,1009.35
2018-11-06T10:19:58.791Z,1009.3
2018-11-06T10:20:58.620Z,1009.29
2018-11-06T10:21:58.599Z,1009.3
2018-11-06T10:22:58.494Z,1009.36
2018-11-06T10:23:58.823Z,1009.32
2018-11-06T10:24:58.597Z,1009.32
2018-11-06T10:25:58.674Z,1009.3
2018-11-06T10:26:58.587Z,1009.3
2018-11-06T10:27:58.433Z,1009.24
2018-11-06T10:28:58.517Z,1009.21
2018-11-06T10:29:58.459Z,1009.2
2018-11-06T10:30:58.869Z,1009.22
2018-11-06T10:31:58.469Z,1009.26
2018-11-06T10:32:58.511Z,1009.3
2018-11-06T10:33:58.452Z,1009.25
2018-11-06T10:34:58.459Z,1009.27
2018-11-06T10:35:58.530Z,1009.28
2018-11-06T10:36:58.578Z,1009.31
2018-11-06T10:37:58.536Z,1009.23
2018-11-06T10:38:58.686Z,1009.24
2018-11-06T10:39:58.653Z,1009.25
2018-11-06T10:40:58.563Z,1009.27
2018-11-06T10:41:58.475Z,1009.32
2018-11-06T10:42:58.597Z,1009.25
2018-11-06T10:43:58.445Z,1009.26
2018-11-06T10:44:58.624Z,1009.22
2018-11-06T10:45:58.463Z,1009.21
2018-11-06T10:46:58.428Z,1009.26
2018-11-06T10:47:58.408Z,1009.21
2018-11-06T10:48:58.721Z,1009.25
2018-11-06T10:49:58.446Z,1009.24
2018-11-06T10:50:58.451Z,1009.23
2018-11-06T10:51:58.577Z,1009.29
2018-11-06T10:52:58.407Z,1009.28
2018-11-06T10:53:58.465Z,1009.26
2018-11-06T10:54:58.421Z,1009.27
2018-11-06T10:55:58.553Z,1009.17
2018-11-06T10:56:58.417Z,1009.18
2018-11-06T10:57:58.554Z,1009.15
2018-11-06T10:58:58.532Z,1009.1
2018-11-06T10:59:58.424Z,1009.09
2018-11-06T11:00:58.533Z,1009.1
2018-11-06T11:01:58.446Z,1009.11
2018-11-06T11:02:58.410Z,1009.08
2018-11-06T11:03:58.518Z,1009.07
2018-11-06T11:04:59.219Z,1009.04
2018-11-06T11:05:58.416Z,1009.04
2018-11-06T11:06:58.639Z,1009
2018-11-06T11:07:58.391Z,1009
2018-11-06T11:08:58.572Z,1008.94
2018-11-06T11:09:58.530Z,1008.95
2018-11-06T11:10:58.378Z,1008.89
2018-11-06T11:11:58.481Z,1008.88
2018-11-06T11:12:58.468Z,1008.87
2018-11-06T11:13:58.391Z,1008.84
2018-11-06T11:14:58.465Z,1008.83
2018-11-06T11:15:58.386Z,1008.83
2018-11-06T11:16:58.384Z,1008.86
2018-11-06T11:17:58.376Z,1008.83
2018-11-06T11:18:58.378Z,1008.82
2018-11-06T11:19:58.479Z,1008.83
2018-11-06T11:20:58.397Z,1008.79
2018-11-06T11:21:58.400Z,1008.81
2018-11-06T11:22:58.521Z,1008.86
2018-11-06T11:23:58.364Z,1008.86
2018-11-06T11:24:58.399Z,1008.84
2018-11-06T11:25:58.373Z,1008.76
2018-11-06T11:26:58.379Z,1008.79
2018-11-06T11:27:58.395Z,1008.74
2018-11-06T11:28:58.409Z,1008.74
2018-11-06T11:29:58.404Z,1008.7
2018-11-06T11:30:58.406Z,1008.65
2018-11-06T11:31:58.683Z,1008.67
2018-11-06T11:32:58.689Z,1008.65
2018-11-06T11:33:58.600Z,1008.58
2018-11-06T11:34:58.411Z,1008.65
2018-11-06T11:35:58.350Z,1008.67
2018-11-06T11:36:58.449Z,1008.62
2018-11-06T11:37:58.391Z,1008.59
2018-11-06T11:38:59.219Z,1008.6
2018-11-06T11:39:58.358Z,1008.6
2018-11-06T11:40:58.409Z,1008.59
2018-11-06T11:41:58.346Z,1008.53
2018-11-06T11:42:58.451Z,1008.56
2018-11-06T11:43:58.367Z,1008.56
2018-11-06T11:44:58.415Z,1008.59
2018-11-06T11:45:58.643Z,1008.57
2018-11-06T11:46:58.493Z,1008.6
2018-11-06T11:47:58.784Z,1008.61
2018-11-06T11:48:58.387Z,1008.66
2018-11-06T11:49:58.490Z,1008.65
2018-11-06T11:50:58.444Z,1008.66
2018-11-06T11:51:58.428Z,1008.64
2018-11-06T11:52:58.353Z,1008.6
2018-11-06T11:53:58.374Z,1008.64
2018-11-06T11:54:58.465Z,1008.62
2018-11-06T11:55:58.419Z,1008.56
2018-11-06T11:56:58.354Z,1008.55
2018-11-06T11:57:58.326Z,1008.54
2018-11-06T11:58:58.401Z,1008.49
2018-11-06T11:59:58.386Z,1008.54
2018-11-06T12:00:58.587Z,1008.5
2018-11-06T12:01:58.401Z,1008.48
2018-11-06T12:02:58.310Z,1008.51
2018-11-06T12:03:58.707Z,1008.43
2018-11-06T12:04:58.493Z,1008.43
2018-11-06T12:05:58.460Z,1008.4
2018-11-06T12:06:58.437Z,1008.42
2018-11-06T12:07:58.372Z,1008.4
2018-11-06T12:08:58.369Z,1008.38
2018-11-06T12:09:58.352Z,1008.37